createdAt,value
2018-09-28T00:01:25.214Z,30.63
2018-09-28T00:03:53.917Z,32.13
2018-09-28T00:06:22.318Z,33.57
2018-09-28T00:08:51.166Z,33.70
2018-09-28T00:11:19.610Z,36.03
2018-09-28T00:13:48.049Z,32.87
2018-09-28T00:16:16.474Z,32.10
2018-09-28T00:18:44.845Z,29.30
2018-09-28T00:21:13.253Z,34.03
2018-09-28T00:23:42.499Z,31.63
2018-09-28T00:26:10.947Z,34.83
2018-09-28T00:28:39.417Z,32.93
2018-09-28T00:31:07.814Z,34.27
2018-09-28T00:33:36.171Z,30.77
2018-09-28T00:36:04.618Z,30.10
2018-09-28T00:38:33.090Z,31.50
2018-09-28T00:41:01.568Z,28.47
2018-09-28T00:43:30.235Z,29.03
2018-09-28T00:45:58.638Z,28.97
2018-09-28T00:48:27.097Z,28.97
2018-09-28T00:50:55.649Z,30.70
2018-09-28T00:53:24.014Z,33.87
2018-09-28T00:55:52.509Z,34.13
2018-09-28T00:58:20.988Z,29.37
2018-09-28T01:00:49.479Z,29.90
2018-09-28T01:03:18.181Z,31.23
2018-09-28T01:05:46.721Z,29.93
2018-09-28T01:08:15.146Z,31.10
2018-09-28T01:10:43.486Z,29.97
2018-09-28T01:13:12.210Z,29.80
2018-09-28T01:15:40.530Z,31.67
2018-09-28T01:18:09.053Z,31.13
2018-09-28T01:20:37.475Z,30.10
2018-09-28T01:23:05.813Z,33.07
2018-09-28T01:25:34.279Z,33.10
2018-09-28T01:28:02.950Z,33.83
2018-09-28T01:30:31.494Z,30.87
2018-09-28T01:32:59.833Z,31.50
2018-09-28T01:35:28.286Z,33.60
2018-09-28T01:37:56.932Z,34.40
2018-09-28T01:40:25.458Z,29.17
2018-09-28T01:42:53.937Z,30.63
2018-09-28T01:45:22.573Z,32.93
2018-09-28T01:47:51.033Z,30.57
2018-09-28T01:50:19.401Z,43.57
2018-09-28T01:52:47.863Z,32.10
2018-09-28T01:55:16.250Z,31.83
2018-09-28T01:57:44.625Z,32.10
2018-09-28T02:00:12.997Z,34.10
2018-09-28T02:02:41.484Z,31.23
2018-09-28T02:05:10.177Z,30.07
2018-09-28T02:07:38.700Z,31.23
2018-09-28T02:10:07.167Z,30.30
2018-09-28T02:12:35.636Z,32.20
2018-09-28T02:15:04.084Z,31.20
2018-09-28T02:17:32.413Z,31.40
2018-09-28T02:20:00.783Z,33.07
2018-09-28T02:22:29.133Z,30.20
2018-09-28T02:24:57.579Z,32.30
2018-09-28T02:27:25.922Z,32.77
2018-09-28T02:29:54.273Z,29.80
2018-09-28T02:32:22.653Z,33.63
2018-09-28T02:34:51.193Z,29.03
2018-09-28T02:37:19.549Z,30.20
2018-09-28T02:39:47.947Z,29.40
2018-09-28T02:42:16.452Z,29.47
2018-09-28T02:44:44.899Z,30.60
2018-09-28T02:47:13.341Z,30.37
2018-09-28T02:49:41.686Z,34.50
2018-09-28T02:52:10.220Z,31.60
2018-09-28T02:54:38.661Z,32.87
2018-09-28T02:57:07.188Z,29.37
2018-09-28T02:59:35.691Z,31.93
2018-09-28T03:02:04.030Z,32.93
2018-09-28T03:04:32.469Z,36.73
2018-09-28T03:07:00.838Z,30.60
2018-09-28T03:09:29.282Z,30.40
2018-09-28T03:11:57.700Z,30.17
2018-09-28T03:14:26.052Z,29.97
2018-09-28T03:16:54.547Z,31.10
2018-09-28T03:19:22.951Z,35.57
2018-09-28T03:21:51.322Z,30.70
2018-09-28T03:24:19.714Z,33.00
2018-09-28T03:26:48.141Z,31.30
2018-09-28T03:29:16.566Z,32.17
2018-09-28T03:31:45.030Z,31.20
2018-09-28T03:34:13.510Z,32.80
2018-09-28T03:36:41.953Z,30.90
2018-09-28T03:39:10.391Z,33.37
2018-09-28T03:41:38.830Z,31.73
2018-09-28T03:44:07.276Z,30.57
2018-09-28T03:46:35.922Z,30.07
2018-09-28T03:49:04.269Z,32.33
2018-09-28T03:51:32.726Z,29.97
2018-09-28T03:54:01.041Z,33.10
2018-09-28T03:56:29.489Z,31.83
2018-09-28T03:58:58.027Z,32.10
2018-09-28T04:01:26.487Z,30.93
2018-09-28T04:03:54.898Z,33.57
2018-09-28T04:06:23.600Z,32.17
2018-09-28T04:08:51.988Z,30.80
2018-09-28T04:11:20.460Z,33.13
2018-09-28T04:13:48.806Z,34.57
2018-09-28T04:16:17.209Z,33.20
2018-09-28T04:18:45.958Z,34.07
2018-09-28T04:21:14.371Z,32.50
2018-09-28T04:23:42.713Z,36.20
2018-09-28T04:26:11.189Z,33.27
2018-09-28T04:28:39.715Z,33.87
2018-09-28T04:31:08.116Z,35.30
2018-09-28T04:33:36.662Z,35.03
2018-09-28T04:36:05.291Z,32.50
2018-09-28T04:38:33.682Z,35.07
2018-09-28T04:41:02.082Z,34.43
2018-09-28T04:43:30.466Z,34.20
2018-09-28T04:45:58.920Z,34.10
2018-09-28T04:48:27.254Z,35.70
2018-09-28T04:50:55.670Z,32.93
2018-09-28T04:53:23.991Z,39.13
2018-09-28T04:55:52.525Z,38.57
2018-09-28T04:58:20.946Z,36.93
2018-09-28T05:00:50.077Z,34.27
2018-09-28T05:03:18.469Z,45.63
2018-09-28T05:05:47.375Z,36.90
2018-09-28T05:08:15.847Z,36.90
2018-09-28T05:10:44.236Z,37.20
2018-09-28T05:13:12.660Z,32.47
2018-09-28T05:15:40.954Z,37.13
2018-09-28T05:18:09.574Z,34.53
2018-09-28T05:20:37.949Z,37.83
2018-09-28T05:23:06.328Z,40.87
2018-09-28T05:25:34.842Z,32.70
2018-09-28T05:28:03.255Z,37.60
2018-09-28T05:30:31.599Z,31.27
2018-09-28T05:33:00.139Z,32.63
2018-09-28T05:35:28.621Z,34.00
2018-09-28T05:37:57.131Z,38.80
2018-09-28T05:40:25.528Z,33.73
2018-09-28T05:42:53.984Z,36.80
2018-09-28T05:45:22.469Z,33.77
2018-09-28T05:47:50.853Z,32.10
2018-09-28T05:50:19.297Z,33.80
2018-09-28T05:52:47.678Z,36.10
2018-09-28T05:55:16.056Z,35.87
2018-09-28T05:57:44.416Z,45.73
2018-09-28T06:00:18.060Z,44.50
2018-09-28T06:02:52.030Z,35.97
2018-09-28T06:05:25.937Z,34.77
2018-09-28T06:07:54.385Z,38.63
2018-09-28T06:10:22.720Z,33.03
2018-09-28T06:12:51.062Z,37.10
2018-09-28T06:15:19.426Z,34.83
2018-09-28T06:17:47.918Z,40.23
2018-09-28T06:20:16.332Z,33.87
2018-09-28T06:22:44.710Z,40.97
2018-09-28T06:25:13.165Z,33.90
2018-09-28T06:27:41.554Z,41.07
2018-09-28T06:30:09.928Z,40.97
2018-09-28T06:32:38.318Z,34.20
2018-09-28T06:35:06.706Z,32.67
2018-09-28T06:37:35.089Z,38.50
2018-09-28T06:40:03.486Z,39.50
2018-09-28T06:42:31.999Z,36.97
2018-09-28T06:45:01.094Z,34.93
2018-09-28T06:47:29.551Z,32.43
2018-09-28T06:49:57.946Z,35.17
2018-09-28T06:52:26.498Z,37.63
2018-09-28T06:54:55.030Z,38.50
2018-09-28T06:57:23.377Z,36.37
2018-09-28T06:59:52.002Z,34.53
2018-09-28T07:02:20.516Z,32.80
2018-09-28T07:04:49.102Z,34.87
2018-09-28T07:07:17.461Z,35.40
2018-09-28T07:09:45.853Z,33.90
2018-09-28T07:12:14.211Z,38.03
2018-09-28T07:14:42.563Z,33.13
2018-09-28T07:17:10.993Z,38.00
2018-09-28T07:19:39.718Z,39.60
2018-09-28T07:22:08.891Z,35.10
2018-09-28T07:24:37.344Z,36.93
2018-09-28T07:27:05.942Z,36.50
2018-09-28T07:29:34.623Z,35.90
2018-09-28T07:32:02.994Z,37.43
2018-09-28T07:34:31.420Z,36.00
2018-09-28T07:36:59.859Z,34.20
2018-09-28T07:39:28.166Z,35.07
2018-09-28T07:41:56.695Z,38.33
2018-09-28T07:44:25.118Z,41.50
2018-09-28T07:46:53.515Z,44.83
2018-09-28T07:49:21.995Z,38.10
2018-09-28T07:51:50.290Z,39.63
2018-09-28T07:54:18.694Z,36.43
2018-09-28T07:56:47.041Z,37.37
2018-09-28T07:59:15.431Z,39.33
2018-09-28T08:01:43.930Z,38.97
2018-09-28T08:04:12.458Z,37.00
2018-09-28T08:06:40.830Z,38.23
2018-09-28T08:09:10.422Z,34.13
2018-09-28T08:11:38.869Z,37.63
2018-09-28T08:14:08.185Z,37.67
2018-09-28T08:16:36.716Z,37.73
2018-09-28T08:19:05.068Z,36.03
2018-09-28T08:21:33.401Z,35.53
2018-09-28T08:24:02.231Z,47.60
2018-09-28T08:26:31.427Z,39.57
2018-09-28T08:28:59.894Z,34.67
2018-09-28T08:31:28.473Z,34.10
2018-09-28T08:33:56.902Z,34.83
2018-09-28T08:36:26.165Z,36.17
2018-09-28T08:38:54.422Z,36.27
2018-09-28T08:41:22.920Z,44.50
2018-09-28T08:43:51.277Z,37.77
2018-09-28T08:46:20.173Z,37.70
2018-09-28T08:48:49.436Z,38.60
2018-09-28T08:51:18.124Z,38.73
2018-09-28T08:53:46.597Z,37.27
2018-09-28T08:56:15.071Z,34.47
2018-09-28T08:58:43.409Z,38.80
2018-09-28T09:01:11.874Z,39.27
2018-09-28T09:03:40.193Z,38.67
2018-09-28T09:06:08.613Z,35.80
2018-09-28T09:08:37.013Z,37.13
2018-09-28T09:11:05.414Z,37.80
2018-09-28T09:13:33.823Z,41.90
2018-09-28T09:16:02.810Z,38.67
2018-09-28T09:18:31.228Z,36.13
2018-09-28T09:20:59.639Z,43.83
2018-09-28T09:23:28.040Z,36.10
2018-09-28T09:25:56.421Z,34.33
2018-09-28T09:28:24.757Z,38.60
2018-09-28T09:30:53.092Z,39.30
2018-09-28T09:33:21.442Z,41.40
2018-09-28T09:35:49.894Z,41.00
2018-09-28T09:38:18.445Z,37.50
2018-09-28T09:40:46.824Z,34.90
2018-09-28T09:43:15.342Z,34.70
2018-09-28T09:45:43.710Z,35.10
2018-09-28T09:48:12.030Z,35.83
2018-09-28T09:50:40.594Z,45.20
2018-09-28T09:53:08.961Z,31.93
2018-09-28T09:55:37.289Z,31.30
2018-09-28T09:58:05.901Z,34.20
2018-09-28T10:00:39.551Z,33.23
2018-09-28T10:03:13.495Z,33.50
2018-09-28T10:05:42.033Z,31.53
2018-09-28T10:08:10.422Z,30.63
2018-09-28T10:10:38.749Z,48.40
2018-09-28T10:13:07.156Z,29.70
2018-09-28T10:15:35.542Z,31.20
2018-09-28T10:18:03.867Z,31.17
2018-09-28T10:20:32.199Z,31.70
2018-09-28T10:23:00.590Z,32.17
2018-09-28T10:25:29.011Z,31.53
2018-09-28T10:27:57.432Z,30.23
2018-09-28T10:30:26.058Z,32.73
2018-09-28T10:32:54.402Z,31.93
2018-09-28T10:35:22.813Z,31.50
2018-09-28T10:37:51.286Z,30.93
2018-09-28T10:40:19.690Z,32.00
2018-09-28T10:42:48.324Z,29.30
2018-09-28T10:45:16.852Z,29.87
2018-09-28T10:47:45.144Z,30.63
2018-09-28T10:50:13.523Z,32.70
2018-09-28T10:52:41.955Z,30.23
2018-09-28T10:55:10.517Z,29.53
2018-09-28T10:57:39.447Z,29.60
2018-09-28T11:00:07.856Z,28.80
2018-09-28T11:02:36.330Z,32.70
2018-09-28T11:05:04.850Z,27.67
2018-09-28T11:07:34.609Z,32.00
2018-09-28T11:10:02.957Z,30.00
2018-09-28T11:12:31.357Z,27.50
2018-09-28T11:14:59.701Z,27.93
2018-09-28T11:17:28.079Z,30.53
2018-09-28T11:19:56.702Z,29.53
2018-09-28T11:22:25.057Z,28.20
2018-09-28T11:24:53.598Z,33.30
2018-09-28T11:27:22.010Z,31.33
2018-09-28T11:29:50.298Z,27.50
2018-09-28T11:32:18.896Z,27.30
2018-09-28T11:34:47.207Z,28.57
2018-09-28T11:37:15.554Z,29.57
2018-09-28T11:39:44.134Z,30.30
2018-09-28T11:42:12.390Z,28.57
2018-09-28T11:44:40.723Z,30.93
2018-09-28T11:47:09.215Z,30.47
2018-09-28T11:49:37.583Z,26.80
2018-09-28T11:52:05.995Z,28.77
2018-09-28T11:54:34.450Z,28.43
2018-09-28T11:57:02.918Z,29.30
2018-09-28T11:59:31.612Z,33.90
2018-09-28T12:01:59.974Z,31.43
2018-09-28T12:04:28.373Z,29.53
2018-09-28T12:06:57.011Z,27.40
2018-09-28T12:09:25.349Z,28.67
2018-09-28T12:11:53.594Z,30.97
2018-09-28T12:14:22.055Z,27.73
2018-09-28T12:16:50.507Z,29.43
2018-09-28T12:19:18.845Z,32.17
2018-09-28T12:21:47.333Z,30.30
2018-09-28T12:24:15.663Z,27.80
2018-09-28T12:26:44.393Z,29.20
2018-09-28T12:29:12.981Z,29.33
2018-09-28T12:31:41.462Z,29.10
2018-09-28T12:34:10.014Z,32.50
2018-09-28T12:36:38.395Z,29.13
2018-09-28T12:39:09.009Z,29.00
2018-09-28T12:41:37.289Z,32.70
2018-09-28T12:44:05.906Z,30.17
2018-09-28T12:46:34.941Z,32.67
2018-09-28T12:49:03.410Z,28.80
2018-09-28T12:51:31.773Z,30.47
2018-09-28T12:54:00.360Z,30.90
2018-09-28T12:56:28.883Z,29.50
2018-09-28T12:58:57.353Z,31.63
2018-09-28T13:01:25.967Z,28.50
2018-09-28T13:03:54.410Z,28.93
2018-09-28T13:06:22.852Z,30.60
2018-09-28T13:08:51.289Z,30.93
2018-09-28T13:11:19.571Z,29.30
2018-09-28T13:13:48.182Z,28.57
2018-09-28T13:16:16.780Z,34.53
2018-09-28T13:18:45.396Z,32.77
2018-09-28T13:21:13.698Z,31.83
2018-09-28T13:23:42.081Z,35.40
2018-09-28T13:26:10.428Z,32.93
2018-09-28T13:28:38.805Z,33.20
2018-09-28T13:31:07.161Z,33.80
2018-09-28T13:33:35.659Z,35.40
2018-09-28T13:36:03.990Z,33.53
2018-09-28T13:38:32.541Z,32.33
2018-09-28T13:41:00.904Z,31.00
2018-09-28T13:43:29.415Z,34.10
2018-09-28T13:45:57.900Z,29.30
2018-09-28T13:48:26.352Z,31.80
2018-09-28T13:50:54.752Z,30.20
2018-09-28T13:53:23.094Z,32.60
2018-09-28T13:55:52.028Z,31.60
2018-09-28T13:58:20.404Z,30.13
2018-09-28T14:00:49.052Z,30.53
2018-09-28T14:03:24.193Z,30.70
2018-09-28T14:05:52.747Z,30.27
2018-09-28T14:08:21.195Z,30.10
2018-09-28T14:10:49.649Z,29.87
2018-09-28T14:13:18.137Z,29.37
2018-09-28T14:15:46.542Z,28.80
2018-09-28T14:18:15.033Z,33.13
2018-09-28T14:20:43.463Z,33.00
2018-09-28T14:23:11.742Z,29.90
2018-09-28T14:25:40.229Z,29.87
2018-09-28T14:28:08.779Z,35.47
2018-09-28T14:30:37.127Z,31.37
2018-09-28T14:33:05.434Z,28.63
2018-09-28T14:35:33.838Z,33.20
2018-09-28T14:38:02.285Z,28.87
2018-09-28T14:40:30.689Z,29.37
2018-09-28T14:43:02.008Z,30.47
2018-09-28T14:45:30.845Z,30.20
2018-09-28T14:47:59.316Z,30.60
2018-09-28T14:50:27.868Z,32.43
2018-09-28T14:52:56.190Z,30.43
2018-09-28T14:55:24.638Z,33.23
2018-09-28T14:57:53.019Z,29.57
2018-09-28T15:00:21.447Z,30.37
2018-09-28T15:02:49.913Z,29.53
2018-09-28T15:05:18.331Z,30.93
2018-09-28T15:07:46.740Z,34.07
2018-09-28T15:10:15.151Z,34.80
2018-09-28T15:12:43.548Z,31.53
2018-09-28T15:15:12.126Z,37.73
2018-09-28T15:17:40.543Z,31.90
2018-09-28T15:20:09.057Z,31.17
2018-09-28T15:22:37.518Z,37.57
2018-09-28T15:25:06.032Z,33.33
2018-09-28T15:27:34.470Z,32.67
2018-09-28T15:30:03.071Z,32.30
2018-09-28T15:32:31.371Z,35.30
2018-09-28T15:34:59.913Z,34.40
2018-09-28T15:37:28.274Z,35.67
2018-09-28T15:39:56.742Z,33.43
2018-09-28T15:42:25.138Z,34.63
2018-09-28T15:44:53.679Z,33.30
2018-09-28T15:47:22.181Z,38.07
2018-09-28T15:49:50.758Z,38.30
2018-09-28T15:52:19.157Z,36.53
2018-09-28T15:54:47.641Z,35.17
2018-09-28T15:57:16.079Z,39.93
2018-09-28T15:59:44.467Z,34.60
2018-09-28T16:02:12.942Z,34.77
2018-09-28T16:04:41.333Z,36.17
2018-09-28T16:07:09.939Z,38.23
2018-09-28T16:09:38.321Z,38.33
2018-09-28T16:12:06.846Z,34.87
2018-09-28T16:14:35.258Z,37.60
2018-09-28T16:17:03.626Z,34.77
2018-09-28T16:19:32.027Z,36.10
2018-09-28T16:22:00.448Z,37.60
2018-09-28T16:24:28.918Z,34.27
2018-09-28T16:26:57.563Z,33.83
2018-09-28T16:29:25.945Z,34.73
2018-09-28T16:31:54.763Z,33.90
2018-09-28T16:34:23.194Z,34.93
2018-09-28T16:36:52.053Z,34.30
2018-09-28T16:39:20.386Z,33.13
2018-09-28T16:41:48.744Z,34.40
2018-09-28T16:44:17.259Z,38.17
2018-09-28T16:46:45.683Z,31.43
2018-09-28T16:49:14.238Z,36.83
2018-09-28T16:51:42.730Z,35.67
2018-09-28T16:54:11.142Z,34.97
2018-09-28T16:56:39.589Z,37.30
2018-09-28T16:59:08.133Z,34.87
2018-09-28T17:01:36.571Z,42.40
2018-09-28T17:04:04.904Z,42.53
2018-09-28T17:06:33.372Z,36.97
2018-09-28T17:09:01.797Z,37.17
2018-09-28T17:11:30.317Z,38.63
2018-09-28T17:13:58.707Z,39.77
2018-09-28T17:16:27.074Z,41.27
2018-09-28T17:18:55.534Z,43.97
2018-09-28T17:21:23.921Z,38.93
2018-09-28T17:23:52.450Z,39.47
2018-09-28T17:26:20.918Z,36.73
2018-09-28T17:28:49.454Z,38.80
2018-09-28T17:31:17.823Z,36.73
2018-09-28T17:33:46.197Z,35.50
2018-09-28T17:36:14.610Z,38.27
2018-09-28T17:38:42.955Z,35.37
2018-09-28T17:41:11.334Z,35.73
2018-09-28T17:43:40.426Z,35.67
2018-09-28T17:46:08.834Z,31.60
2018-09-28T17:48:37.239Z,34.23
2018-09-28T17:51:05.590Z,31.37
2018-09-28T17:53:34.087Z,32.00
2018-09-28T17:56:02.512Z,31.90
2018-09-28T17:58:30.959Z,30.60
2018-09-28T18:00:59.850Z,34.07
2018-09-28T18:03:28.365Z,31.20
2018-09-28T18:05:56.854Z,32.33
2018-09-28T18:08:25.777Z,35.43
2018-09-28T18:10:54.248Z,31.77
2018-09-28T18:13:22.690Z,29.97
2018-09-28T18:15:51.136Z,29.43
2018-09-28T18:18:19.689Z,31.77
2018-09-28T18:20:48.019Z,30.13
2018-09-28T18:23:16.422Z,30.10
2018-09-28T18:25:44.998Z,26.90
2018-09-28T18:28:13.510Z,28.20
2018-09-28T18:30:41.871Z,31.03
2018-09-28T18:33:10.359Z,32.13
2018-09-28T18:35:38.808Z,28.63
2018-09-28T18:38:07.282Z,27.83
2018-09-28T18:40:35.771Z,27.20
2018-09-28T18:43:04.144Z,30.60
2018-09-28T18:45:32.540Z,29.57
2018-09-28T18:48:00.996Z,28.57
2018-09-28T18:50:29.419Z,31.53
2018-09-28T18:52:58.012Z,27.27
2018-09-28T18:55:26.418Z,30.33
2018-09-28T18:57:54.816Z,28.37
2018-09-28T19:00:23.160Z,28.33
2018-09-28T19:02:51.606Z,28.70
2018-09-28T19:05:19.955Z,31.90
2018-09-28T19:07:48.983Z,26.80
2018-09-28T19:10:17.419Z,27.80
2018-09-28T19:12:45.943Z,27.30
2018-09-28T19:15:14.298Z,27.40
2018-09-28T19:17:42.762Z,28.00
2018-09-28T19:20:11.153Z,28.03
2018-09-28T19:22:39.704Z,26.47
2018-09-28T19:25:07.927Z,27.20
2018-09-28T19:27:36.311Z,26.17
2018-09-28T19:30:05.237Z,28.00
2018-09-28T19:32:33.672Z,32.87
2018-09-28T19:35:02.346Z,28.50
2018-09-28T19:37:30.784Z,29.90
2018-09-28T19:39:59.522Z,30.37
2018-09-28T19:42:28.094Z,30.80
2018-09-28T19:44:56.638Z,29.40
2018-09-28T19:47:25.140Z,29.07
2018-09-28T19:49:53.807Z,30.70
2018-09-28T19:52:22.334Z,32.00
2018-09-28T19:54:50.874Z,37.70
2018-09-28T19:57:19.228Z,30.80
2018-09-28T19:59:47.637Z,30.17
2018-09-28T20:02:16.119Z,30.27
2018-09-28T20:04:44.536Z,29.60
2018-09-28T20:07:12.910Z,33.30
2018-09-28T20:09:41.351Z,30.67
2018-09-28T20:12:09.946Z,32.30
2018-09-28T20:14:38.542Z,30.90
2018-09-28T20:17:07.842Z,31.33
2018-09-28T20:19:36.343Z,29.53
2018-09-28T20:22:08.532Z,33.20
2018-09-28T20:24:37.005Z,33.10
2018-09-28T20:27:05.617Z,31.80
2018-09-28T20:29:33.997Z,35.17
2018-09-28T20:32:02.463Z,33.53
2018-09-28T20:34:31.107Z,30.83
2018-09-28T20:36:59.661Z,32.53
2018-09-28T20:39:28.041Z,32.60
2018-09-28T20:41:56.380Z,34.60
2018-09-28T20:44:24.776Z,34.23
2018-09-28T20:46:53.273Z,36.87
2018-09-28T20:49:21.628Z,40.17
2018-09-28T20:51:50.158Z,38.90
2018-09-28T20:54:18.687Z,39.80
2018-09-28T20:56:47.061Z,43.37
2018-09-28T20:59:15.570Z,40.17
2018-09-28T21:01:44.018Z,41.03
2018-09-28T21:04:12.391Z,43.00
2018-09-28T21:06:40.989Z,40.83
2018-09-28T21:09:10.230Z,40.90
2018-09-28T21:11:38.657Z,44.90
2018-09-28T21:14:07.483Z,48.80
2018-09-28T21:16:35.873Z,47.27
2018-09-28T21:19:04.481Z,45.07
2018-09-28T21:21:32.892Z,50.00
2018-09-28T21:24:01.375Z,44.30
2018-09-28T21:26:29.847Z,46.20
2018-09-28T21:28:58.380Z,42.93
2018-09-28T21:31:26.703Z,44.20
2018-09-28T21:33:55.097Z,42.77
2018-09-28T21:36:24.953Z,45.83
2018-09-28T21:38:53.843Z,41.40
2018-09-28T21:41:22.509Z,40.50
2018-09-28T21:43:50.912Z,42.53
2018-09-28T21:46:19.257Z,37.57
2018-09-28T21:48:47.713Z,38.47
2018-09-28T21:51:16.185Z,43.50
2018-09-28T21:53:44.557Z,39.83
2018-09-28T21:56:12.917Z,42.40
2018-09-28T21:58:41.284Z,36.60
2018-09-28T22:01:09.798Z,39.40
2018-09-28T22:03:38.563Z,39.53
2018-09-28T22:06:06.946Z,43.83
2018-09-28T22:08:35.390Z,36.60
2018-09-28T22:11:03.769Z,35.33
2018-09-28T22:13:32.094Z,36.67
2018-09-28T22:16:00.569Z,35.00
2018-09-28T22:18:29.005Z,38.90
2018-09-28T22:20:57.430Z,33.57
2018-09-28T22:23:25.942Z,34.27
2018-09-28T22:25:54.370Z,33.97
2018-09-28T22:28:22.826Z,33.53
2018-09-28T22:30:51.482Z,33.10
2018-09-28T22:33:19.913Z,35.70
2018-09-28T22:35:48.405Z,31.67
2018-09-28T22:38:16.844Z,35.30
2018-09-28T22:40:45.205Z,31.63
2018-09-28T22:43:13.806Z,33.07
2018-09-28T22:45:42.165Z,33.73
2018-09-28T22:48:10.513Z,29.90
2018-09-28T22:50:38.961Z,29.20
2018-09-28T22:53:07.453Z,32.60
2018-09-28T22:55:35.921Z,32.63
2018-09-28T22:58:04.330Z,31.40
2018-09-28T23:00:32.816Z,30.60
2018-09-28T23:03:01.249Z,33.27
2018-09-28T23:05:29.732Z,27.80
2018-09-28T23:07:58.507Z,29.33
2018-09-28T23:10:26.984Z,26.50
2018-09-28T23:12:55.430Z,29.13
2018-09-28T23:15:23.901Z,27.83
2018-09-28T23:17:52.391Z,31.33
2018-09-28T23:20:20.994Z,29.57
2018-09-28T23:22:49.412Z,28.93
2018-09-28T23:25:17.734Z,27.27
2018-09-28T23:27:46.197Z,25.83
2018-09-28T23:30:14.559Z,28.17
2018-09-28T23:32:42.907Z,27.00
2018-09-28T23:35:11.354Z,26.13
2018-09-28T23:37:39.902Z,30.00
2018-09-28T23:40:08.317Z,30.30
2018-09-28T23:42:36.782Z,28.10
2018-09-28T23:45:05.289Z,30.53
2018-09-28T23:47:33.789Z,27.00
2018-09-28T23:50:02.009Z,26.83
2018-09-28T23:52:30.461Z,28.37
2018-09-28T23:54:58.865Z,27.47
2018-09-28T23:57:27.445Z,35.23
2018-09-28T23:59:56.061Z,27.40
